TimeEDT,TemperatureF,Dew PointF,Humidity,Sea Level PressureIn,VisibilityMPH,Wind Direction,Wind SpeedMPH,Gust SpeedMPH,PrecipitationIn,Events,Conditions,WindDirDegrees,DateUTC
12:56 AM,64.0,59.0,84,30.05,10.0,Calm,Calm,-,N/A,,Scattered Clouds,0,2013-07-26 04:56:00
1:56 AM,64.9,60.1,84,30.05,10.0,NNW,3.5,-,N/A,,Mostly Cloudy,340,2013-07-26 05:56:00
2:56 AM,64.9,59.0,81,30.04,10.0,North,3.5,-,N/A,,Mostly Cloudy,10,2013-07-26 06:56:00
3:56 AM,63.0,59.0,87,30.05,10.0,North,4.6,-,N/A,,Partly Cloudy,350,2013-07-26 07:56:00
4:56 AM,63.0,59.0,87,30.05,10.0,NNW,3.5,-,N/A,,Partly Cloudy,340,2013-07-26 08:56:00
5:56 AM,62.1,59.0,90,30.06,10.0,NNW,3.5,-,N/A,,Partly Cloudy,340,2013-07-26 09:56:00
6:56 AM,63.0,59.0,87,30.06,10.0,NW,6.9,-,N/A,,Clear,310,2013-07-26 10:56:00
7:56 AM,66.0,57.9,75,30.07,10.0,NW,5.8,-,N/A,,Clear,310,2013-07-26 11:56:00
8:56 AM,69.1,57.9,68,30.09,10.0,WNW,5.8,-,N/A,,Clear,290,2013-07-26 12:56:00
9:56 AM,72.0,57.0,59,30.09,10.0,WNW,8.1,-,N/A,,Clear,290,2013-07-26 13:56:00
10:56 AM,73.9,55.9,53,30.08,10.0,West,5.8,-,N/A,,Clear,270,2013-07-26 14:56:00
11:56 AM,75.9,50.0,40,30.07,10.0,NNW,8.1,-,N/A,,Clear,330,2013-07-26 15:56:00
12:56 PM,78.1,54.0,43,30.06,10.0,West,10.4,-,N/A,,Clear,280,2013-07-26 16:56:00
1:56 PM,79.0,52.0,39,30.05,10.0,West,5.8,-,N/A,,Partly Cloudy,280,2013-07-26 17:56:00
2:56 PM,80.1,54.0,40,30.04,10.0,West,3.5,-,N/A,,Partly Cloudy,270,2013-07-26 18:56:00
3:56 PM,81.0,54.0,39,30.03,10.0,WSW,3.5,-,N/A,,Partly Cloudy,240,2013-07-26 19:56:00
4:56 PM,82.0,53.1,37,30.02,10.0,Calm,Calm,-,N/A,,Partly Cloudy,0,2013-07-26 20:56:00
5:56 PM,82.0,54.0,38,30.01,10.0,Calm,Calm,-,N/A,,Partly Cloudy,0,2013-07-26 21:56:00
6:56 PM,80.1,55.9,43,30.01,10.0,SSE,3.5,-,N/A,,Partly Cloudy,160,2013-07-26 22:56:00
7:56 PM,77.0,60.1,56,30.01,10.0,South,4.6,-,N/A,,Partly Cloudy,190,2013-07-26 23:56:00
8:56 PM,75.0,61.0,62,30.02,10.0,SSW,6.9,-,N/A,,Partly Cloudy,200,2013-07-27 00:56:00
9:56 PM,73.9,60.1,62,30.03,10.0,SW,6.9,-,N/A,,Partly Cloudy,220,2013-07-27 01:56:00
10:56 PM,73.0,59.0,61,30.04,10.0,South,5.8,-,N/A,,Partly Cloudy,180,2013-07-27 02:56:00
11:56 PM,66.9,59.0,76,30.04,10.0,Calm,Calm,-,N/A,,Scattered Clouds,0,2013-07-27 03:56:00